createdAt,value
2018-10-12T00:03:01.013Z,25.83
2018-10-12T00:08:04.850Z,27.53
2018-10-12T00:13:08.574Z,29.60
2018-10-12T00:18:12.303Z,27.40
2018-10-12T00:23:15.912Z,26.27
2018-10-12T00:28:19.565Z,24.63
2018-10-12T00:33:23.339Z,29.40
2018-10-12T00:38:27.181Z,24.13
2018-10-12T00:43:58.308Z,22.60
2018-10-12T00:49:02.075Z,23.27
2018-10-12T00:54:05.804Z,21.93
2018-10-12T00:59:10.183Z,23.13
2018-10-12T01:04:17.024Z,23.70
2018-10-12T01:14:46.160Z,20.17
2018-10-12T01:19:56.509Z,20.17
2018-10-12T01:25:04.248Z,22.27
2018-10-12T01:30:07.971Z,22.10
2018-10-12T01:35:15.439Z,25.97
2018-10-12T01:40:20.174Z,25.70
2018-10-12T01:45:23.939Z,27.63
2018-10-12T01:50:27.626Z,24.40
2018-10-12T01:55:31.344Z,23.27
2018-10-12T02:00:36.621Z,24.57
2018-10-12T02:05:40.286Z,22.60
2018-10-12T02:10:44.178Z,20.60
2018-10-12T02:15:47.867Z,26.17
2018-10-12T02:20:51.620Z,23.40
2018-10-12T02:25:55.264Z,21.53
2018-10-12T02:36:30.109Z,24.87
2018-10-12T02:41:36.542Z,25.07
2018-10-12T02:46:40.668Z,24.97
2018-10-12T02:51:44.829Z,25.30
2018-10-12T02:56:48.700Z,22.47
2018-10-12T03:01:52.670Z,23.57
2018-10-12T03:06:56.320Z,25.00
2018-10-12T03:12:00.051Z,22.10
2018-10-12T03:17:03.825Z,24.73
2018-10-12T03:22:07.692Z,19.90
2018-10-12T03:27:11.510Z,21.23
2018-10-12T03:32:15.312Z,24.17
2018-10-12T03:37:19.073Z,25.87
2018-10-12T03:42:22.830Z,21.70
2018-10-12T03:47:26.595Z,21.40
2018-10-12T03:52:30.286Z,26.63
2018-10-12T03:57:33.988Z,26.53
2018-10-12T04:02:37.676Z,23.03
2018-10-12T04:07:42.274Z,23.80
2018-10-12T04:12:46.010Z,26.23
2018-10-12T04:17:49.591Z,28.60
2018-10-12T04:22:56.022Z,24.20
2018-10-12T04:28:00.762Z,25.53
2018-10-12T04:33:04.894Z,29.07
2018-10-12T04:38:08.537Z,26.67
2018-10-12T04:43:12.234Z,29.73
2018-10-12T04:48:20.692Z,27.33
2018-10-12T04:53:25.512Z,28.50
2018-10-12T04:58:29.221Z,27.37
2018-10-12T05:03:33.026Z,25.30
2018-10-12T05:08:37.433Z,29.23
2018-10-12T05:13:41.346Z,28.00
2018-10-12T05:18:45.060Z,29.20
2018-10-12T05:23:48.978Z,25.40
2018-10-12T05:28:52.741Z,27.43
2018-10-12T05:33:56.546Z,23.93
2018-10-12T05:39:00.602Z,28.23
2018-10-12T05:44:04.737Z,26.80
2018-10-12T05:49:19.615Z,29.33
2018-10-12T05:54:23.703Z,26.57
2018-10-12T05:59:30.294Z,29.90
2018-10-12T06:04:33.870Z,30.70
2018-10-12T06:09:38.957Z,30.83
2018-10-12T06:14:43.662Z,40.87
2018-10-12T06:19:47.403Z,34.17
2018-10-12T06:24:51.046Z,32.37
2018-10-12T06:29:54.614Z,28.90
2018-10-12T06:35:00.778Z,29.90
2018-10-12T06:40:04.561Z,28.83
2018-10-12T06:45:08.277Z,31.17
2018-10-12T06:50:14.978Z,38.97
2018-10-12T06:55:18.670Z,38.47
2018-10-12T07:00:22.343Z,38.43
2018-10-12T07:05:26.084Z,37.57
2018-10-12T07:10:29.694Z,38.47
2018-10-12T07:15:33.267Z,33.17
2018-10-12T07:20:36.847Z,37.03
2018-10-12T07:25:40.462Z,41.63
2018-10-12T07:30:44.179Z,37.30
2018-10-12T07:35:47.862Z,39.03
2018-10-12T07:40:52.726Z,34.73
2018-10-12T07:45:56.662Z,39.33
2018-10-12T07:51:00.506Z,34.73
2018-10-12T07:56:04.436Z,33.50
2018-10-12T08:01:09.347Z,30.03
2018-10-12T08:06:13.198Z,26.63
2018-10-12T08:11:17.370Z,23.30
2018-10-12T08:16:21.396Z,22.53
2018-10-12T08:21:25.265Z,22.77
2018-10-12T08:26:28.923Z,19.50
2018-10-12T08:31:33.406Z,20.43
2018-10-12T08:36:37.495Z,17.60
2018-10-12T08:41:44.907Z,18.47
2018-10-12T08:46:49.614Z,20.97
2018-10-12T08:51:55.311Z,16.90
2018-10-12T08:56:59.882Z,15.07
2018-10-12T09:02:05.087Z,17.60
2018-10-12T09:07:12.419Z,16.90
2018-10-12T09:12:16.089Z,15.13
2018-10-12T09:22:44.979Z,17.80
2018-10-12T09:27:49.699Z,14.30
2018-10-12T09:32:54.975Z,21.10
2018-10-12T09:37:58.654Z,19.40
2018-10-12T09:43:02.197Z,16.17
2018-10-12T09:48:08.598Z,17.93
2018-10-12T09:53:12.123Z,14.10
2018-10-12T09:58:15.771Z,15.40
2018-10-12T10:03:24.734Z,18.73
2018-10-12T10:08:28.501Z,15.00
2018-10-12T10:13:31.919Z,18.90
2018-10-12T10:18:39.237Z,14.70
2018-10-12T10:23:42.850Z,13.23
2018-10-12T10:28:46.643Z,14.93
2018-10-12T10:33:50.291Z,13.47
2018-10-12T10:38:56.357Z,11.67
2018-10-12T10:44:03.471Z,10.70
2018-10-12T10:49:09.477Z,12.37
2018-10-12T10:54:13.302Z,15.97
2018-10-12T10:59:19.919Z,11.87
2018-10-12T11:04:23.462Z,8.03
2018-10-12T11:09:27.118Z,4.97
2018-10-12T11:14:30.742Z,7.97
2018-10-12T11:19:36.713Z,9.37
2018-10-12T11:24:40.412Z,6.57
2018-10-12T11:29:44.048Z,7.77
2018-10-12T11:34:51.457Z,11.77
2018-10-12T11:39:55.050Z,9.20
2018-10-12T11:44:58.830Z,13.80
2018-10-12T11:50:05.322Z,10.33
2018-10-12T11:55:08.870Z,8.43
2018-10-12T12:00:12.446Z,8.53
2018-10-12T12:05:16.009Z,6.23
2018-10-12T12:10:21.018Z,6.17
2018-10-12T12:15:25.680Z,4.97
2018-10-12T12:20:29.456Z,4.93
2018-10-12T12:25:33.290Z,4.07
2018-10-12T12:30:37.953Z,8.90
2018-10-12T12:35:42.007Z,5.50
2018-10-12T12:40:45.246Z,3.50
2018-10-12T12:45:52.428Z,7.17
2018-10-12T12:50:56.006Z,6.57
2018-10-12T12:55:59.646Z,6.43
2018-10-12T13:01:08.031Z,5.33
2018-10-12T13:06:12.776Z,7.90
2018-10-12T13:11:23.296Z,5.57
2018-10-12T13:16:28.479Z,3.63
2018-10-12T13:21:32.335Z,7.47
2018-10-12T13:26:35.984Z,10.10
2018-10-12T13:31:39.794Z,6.10
2018-10-12T13:36:43.643Z,8.43
2018-10-12T13:41:47.354Z,3.20
2018-10-12T13:46:51.047Z,4.43
2018-10-12T13:51:54.595Z,5.97
2018-10-12T13:56:59.339Z,6.50
2018-10-12T14:02:02.895Z,11.53
2018-10-12T14:07:06.638Z,5.03
2018-10-12T14:12:10.196Z,4.17
2018-10-12T14:17:13.818Z,8.27
2018-10-12T14:22:17.381Z,4.70
2018-10-12T14:27:21.056Z,7.30
2018-10-12T14:32:24.807Z,6.40
2018-10-12T14:37:28.414Z,6.63
2018-10-12T14:42:37.855Z,11.50
2018-10-12T14:47:41.523Z,4.97
2018-10-12T14:52:45.118Z,5.73
2018-10-12T14:57:48.694Z,4.60
2018-10-12T15:02:53.423Z,7.90
2018-10-12T15:07:56.993Z,8.47
2018-10-12T15:13:00.546Z,8.33
2018-10-12T15:18:06.996Z,6.80
2018-10-12T15:23:10.723Z,8.40
2018-10-12T15:28:14.330Z,11.00
2018-10-12T15:33:21.006Z,8.50
2018-10-12T15:38:26.640Z,9.63
2018-10-12T15:43:30.334Z,7.43
2018-10-12T15:48:33.869Z,10.67
2018-10-12T15:53:39.362Z,8.07
2018-10-12T15:58:42.918Z,13.03
2018-10-12T16:03:46.474Z,8.07
2018-10-12T16:08:54.755Z,12.97
2018-10-12T16:13:58.359Z,12.03
2018-10-12T16:19:02.029Z,8.37
2018-10-12T16:24:11.386Z,5.33
2018-10-12T16:29:15.032Z,10.37
2018-10-12T16:34:18.711Z,11.33
2018-10-12T16:39:25.040Z,11.77
2018-10-12T16:44:28.643Z,7.43
2018-10-12T16:49:32.151Z,15.83
2018-10-12T16:54:39.519Z,9.40
2018-10-12T16:59:43.128Z,21.43
2018-10-12T17:04:46.951Z,16.43
2018-10-12T17:09:55.381Z,8.57
2018-10-12T17:14:59.002Z,14.30
2018-10-12T17:20:02.692Z,9.17
2018-10-12T17:25:10.504Z,8.97
2018-10-12T17:30:14.237Z,7.33
2018-10-12T17:35:18.087Z,12.50
2018-10-12T17:40:25.299Z,8.30
2018-10-12T17:45:28.857Z,9.77
2018-10-12T17:50:32.396Z,13.47
2018-10-12T17:55:35.999Z,8.17
2018-10-12T18:00:39.531Z,9.30
2018-10-12T18:05:48.654Z,8.97
2018-10-12T18:10:52.238Z,8.70
2018-10-12T18:15:55.886Z,15.90
2018-10-12T18:21:02.584Z,10.50
2018-10-12T18:26:08.205Z,14.43
2018-10-12T18:31:11.994Z,10.90
2018-10-12T18:36:15.788Z,12.43
2018-10-12T18:41:21.514Z,27.40
2018-10-12T18:46:25.186Z,27.13
2018-10-12T18:51:28.751Z,20.63
2018-10-12T18:56:32.387Z,18.03
2018-10-12T19:01:41.430Z,18.60
2018-10-12T19:06:45.530Z,18.37
2018-10-12T19:11:49.011Z,18.70
2018-10-12T19:16:55.624Z,14.27
2018-10-12T19:22:01.360Z,16.47
2018-10-12T19:27:06.756Z,12.40
2018-10-12T19:32:11.065Z,12.63
2018-10-12T19:37:14.909Z,20.73
2018-10-12T19:42:18.611Z,18.60
2018-10-12T19:47:24.700Z,17.13
2018-10-12T19:52:28.262Z,16.43
2018-10-12T19:57:31.967Z,18.77
2018-10-12T20:02:41.482Z,21.87
2018-10-12T20:07:45.978Z,25.30
2018-10-12T20:12:49.551Z,16.83
2018-10-12T20:17:53.227Z,12.70
2018-10-12T20:22:56.829Z,11.87
2018-10-12T20:28:00.643Z,13.97
2018-10-12T20:33:04.478Z,13.00
2018-10-12T20:38:08.522Z,12.77
2018-10-12T20:43:12.179Z,10.30
2018-10-12T20:48:15.962Z,9.20
2018-10-12T20:53:19.566Z,11.07
2018-10-12T20:58:24.242Z,9.23
2018-10-12T21:03:27.926Z,9.97
2018-10-12T21:08:31.493Z,12.07
2018-10-12T21:13:35.182Z,11.10
2018-10-12T21:18:38.802Z,13.53
2018-10-12T21:23:44.426Z,13.17
2018-10-12T21:28:49.054Z,8.43
2018-10-12T21:33:53.888Z,11.80
2018-10-12T21:38:57.527Z,9.53
2018-10-12T21:44:05.212Z,14.47
2018-10-12T21:49:08.859Z,11.47
2018-10-12T21:54:12.506Z,14.27
2018-10-12T21:59:16.068Z,9.17
2018-10-12T22:04:34.410Z,8.83
2018-10-12T22:09:39.007Z,8.20
2018-10-12T22:14:42.550Z,8.43
2018-10-12T22:19:46.239Z,10.53
2018-10-12T22:24:50.066Z,8.77
2018-10-12T22:29:53.695Z,7.30
2018-10-12T22:34:57.261Z,6.17
2018-10-12T22:40:02.950Z,6.93
2018-10-12T22:45:06.608Z,7.60
2018-10-12T22:50:10.179Z,8.47
2018-10-12T22:55:18.057Z,8.17
2018-10-12T23:00:21.630Z,13.33
2018-10-12T23:05:25.390Z,9.47
2018-10-12T23:10:28.938Z,11.40
2018-10-12T23:15:32.498Z,7.17
2018-10-12T23:20:36.086Z,9.00
2018-10-12T23:25:39.670Z,64.83
2018-10-12T23:30:43.230Z,47.53
2018-10-12T23:35:47.969Z,50.97
2018-10-12T23:40:51.742Z,40.73
2018-10-12T23:45:55.363Z,32.03
2018-10-12T23:50:58.917Z,22.07
2018-10-12T23:56:04.720Z,17.27
